createdAt,value
2023-04-15T00:00:10.424Z,65.46
2023-04-15T00:03:02.565Z,66.16
2023-04-15T00:05:31.686Z,66.32
2023-04-15T00:08:08.164Z,66.17
2023-04-15T00:10:36.211Z,65.32
2023-04-15T00:13:04.517Z,65.16
2023-04-15T00:15:32.920Z,65.12
2023-04-15T00:18:01.363Z,65.26
2023-04-15T00:20:29.319Z,65.74
2023-04-15T00:22:58.140Z,65.91
2023-04-15T00:25:26.446Z,66.08
2023-04-15T00:27:54.469Z,66.41
2023-04-15T00:30:24.054Z,65.75
2023-04-15T00:32:52.822Z,65.83
2023-04-15T00:35:22.625Z,66.51
2023-04-15T00:37:53.113Z,66.37
2023-04-15T00:40:21.918Z,66.15
2023-04-15T00:42:51.396Z,66.33
2023-04-15T00:45:19.410Z,66.21
2023-04-15T00:47:47.519Z,65.92
2023-04-15T00:50:16.223Z,65.85
2023-04-15T00:52:45.084Z,65.48
2023-04-15T00:55:13.368Z,65.91
2023-04-15T00:57:41.667Z,66.16
2023-04-15T01:00:11.821Z,65.72
2023-04-15T01:02:40.518Z,66.34
2023-04-15T01:05:09.505Z,65.60
2023-04-15T01:07:37.576Z,66.05
2023-04-15T01:10:06.195Z,66.21
2023-04-15T01:12:34.414Z,65.79
2023-04-15T01:15:02.441Z,66.07
2023-04-15T01:17:30.640Z,66.28
2023-04-15T01:19:59.009Z,66.08
2023-04-15T01:22:27.715Z,65.97
2023-04-15T01:25:08.933Z,65.82
2023-04-15T01:27:41.196Z,66.15
2023-04-15T01:30:10.725Z,66.36
2023-04-15T01:32:38.876Z,65.92
2023-04-15T01:35:07.907Z,66.22
2023-04-15T01:37:36.029Z,65.59
2023-04-15T01:40:04.565Z,65.85
2023-04-15T01:42:32.900Z,65.94
2023-04-15T01:45:01.001Z,66.26
2023-04-15T01:47:29.076Z,66.07
2023-04-15T01:49:57.203Z,65.98
2023-04-15T01:52:25.353Z,66.23
2023-04-15T01:54:53.599Z,66.71
2023-04-15T01:57:22.114Z,66.52
2023-04-15T01:59:50.131Z,66.36
2023-04-15T02:02:18.186Z,65.93
2023-04-15T02:04:46.511Z,66.26
2023-04-15T02:07:14.623Z,65.71
2023-04-15T02:09:43.630Z,66.24
2023-04-15T02:12:11.836Z,66.27
2023-04-15T02:14:40.211Z,65.89
2023-04-15T02:17:08.601Z,65.96
2023-04-15T02:19:40.529Z,66.15
2023-04-15T02:22:09.413Z,66.36
2023-04-15T02:24:37.500Z,66.31
2023-04-15T02:27:05.583Z,66.23
2023-04-15T02:29:33.664Z,66.04
2023-04-15T02:32:02.440Z,65.96
2023-04-15T02:34:31.735Z,65.96
2023-04-15T02:36:59.756Z,65.71
2023-04-15T02:39:28.285Z,65.48
2023-04-15T02:41:59.136Z,65.77
2023-04-15T02:44:28.175Z,65.92
2023-04-15T02:46:59.356Z,65.86
2023-04-15T02:49:30.006Z,66.03
2023-04-15T02:52:00.003Z,66.36
2023-04-15T02:54:31.079Z,65.88
2023-04-15T02:56:59.194Z,66.20
2023-04-15T02:59:27.255Z,65.93
2023-04-15T03:02:00.994Z,65.52
2023-04-15T03:04:30.921Z,65.83
2023-04-15T03:06:59.168Z,65.96
2023-04-15T03:09:30.075Z,65.53
2023-04-15T03:11:59.627Z,66.37
2023-04-15T03:14:29.563Z,66.41
2023-04-15T03:17:00.660Z,66.43
2023-04-15T03:19:34.681Z,66.19
2023-04-15T03:22:02.791Z,66.11
2023-04-15T03:24:31.027Z,66.36
2023-04-15T03:27:02.059Z,66.55
2023-04-15T03:29:30.863Z,66.04
2023-04-15T03:31:58.955Z,66.35
2023-04-15T03:34:32.628Z,66.30
2023-04-15T03:37:00.695Z,66.13
2023-04-15T03:39:28.632Z,65.73
2023-04-15T03:41:56.779Z,66.17
2023-04-15T03:44:24.939Z,66.17
2023-04-15T03:46:52.928Z,66.07
2023-04-15T03:49:23.071Z,66.17
2023-04-15T03:51:51.236Z,66.03
2023-04-15T03:54:19.178Z,65.98
2023-04-15T03:56:47.378Z,66.01
2023-04-15T03:59:21.588Z,66.00
2023-04-15T04:01:49.903Z,65.85
2023-04-15T04:04:17.973Z,65.78
2023-04-15T04:06:46.294Z,66.05
2023-04-15T04:09:14.333Z,65.41
2023-04-15T04:11:45.939Z,65.66
2023-04-15T04:14:14.224Z,65.20
2023-04-15T04:16:42.399Z,64.75
2023-04-15T04:19:10.796Z,65.60
2023-04-15T04:21:41.529Z,66.11
2023-04-15T04:24:12.459Z,65.96
2023-04-15T04:26:42.900Z,65.87
2023-04-15T04:29:11.266Z,65.91
2023-04-15T04:31:40.822Z,65.98
2023-04-15T04:34:14.436Z,65.51
2023-04-15T04:36:42.614Z,65.32
2023-04-15T04:39:13.083Z,65.21
2023-04-15T04:41:41.356Z,64.85
2023-04-15T04:44:09.376Z,64.33
2023-04-15T04:46:37.493Z,64.46
2023-04-15T04:49:07.068Z,64.61
2023-04-15T04:51:41.378Z,65.13
2023-04-15T04:54:10.027Z,65.67
2023-04-15T04:56:39.892Z,65.25
2023-04-15T04:59:11.581Z,64.79
2023-04-15T05:01:42.081Z,64.62
2023-04-15T05:04:11.577Z,64.60
2023-04-15T05:06:44.506Z,64.72
2023-04-15T05:09:16.689Z,64.57
2023-04-15T05:11:45.045Z,64.55
2023-04-15T05:14:13.250Z,64.54
2023-04-15T05:16:41.630Z,63.98
2023-04-15T05:19:09.724Z,63.20
2023-04-15T05:21:39.439Z,63.24
2023-04-15T05:24:07.654Z,63.07
2023-04-15T05:26:36.006Z,62.54
2023-04-15T05:29:04.109Z,62.08
2023-04-15T05:31:32.705Z,61.99
2023-04-15T05:34:00.718Z,62.25
2023-04-15T05:36:28.894Z,62.32
2023-04-15T05:38:56.896Z,62.01
2023-04-15T05:41:24.999Z,61.28
2023-04-15T05:43:55.384Z,61.28
2023-04-15T05:46:23.604Z,61.16
2023-04-15T05:48:51.756Z,61.55
2023-04-15T05:51:24.108Z,61.45
2023-04-15T05:53:52.233Z,61.54
2023-04-15T05:56:20.776Z,61.98
2023-04-15T05:58:48.846Z,61.42
2023-04-15T06:01:17.229Z,61.22
2023-04-15T06:03:45.357Z,61.18
2023-04-15T06:06:13.721Z,61.21
2023-04-15T06:08:42.071Z,61.82
2023-04-15T06:11:10.133Z,62.01
2023-04-15T06:13:38.186Z,61.92
2023-04-15T06:16:06.942Z,62.02
2023-04-15T06:18:34.972Z,61.49
2023-04-15T06:21:02.986Z,60.64
2023-04-15T06:23:31.166Z,60.38
2023-04-15T06:25:59.125Z,60.73
2023-04-15T06:28:27.047Z,61.09
2023-04-15T06:30:56.303Z,61.32
2023-04-15T06:33:24.205Z,60.94
2023-04-15T06:35:52.399Z,60.79
2023-04-15T06:38:20.546Z,60.41
2023-04-15T06:40:48.476Z,60.44
2023-04-15T06:43:16.490Z,60.42
2023-04-15T06:45:44.664Z,60.56
2023-04-15T06:48:12.819Z,60.43
2023-04-15T06:50:41.172Z,60.41
2023-04-15T06:53:09.215Z,61.09
2023-04-15T06:55:37.256Z,60.55
2023-04-15T06:58:05.323Z,60.44
2023-04-15T07:00:43.709Z,60.15
2023-04-15T07:03:17.763Z,60.16
2023-04-15T07:05:45.976Z,60.60
2023-04-15T07:08:14.236Z,60.25
2023-04-15T07:10:42.339Z,60.47
2023-04-15T07:13:10.342Z,60.55
2023-04-15T07:15:38.453Z,60.74
2023-04-15T07:18:06.787Z,60.10
2023-04-15T07:20:34.752Z,60.35
2023-04-15T07:23:02.788Z,60.45
2023-04-15T07:25:30.972Z,60.46
2023-04-15T07:27:59.135Z,60.54
2023-04-15T07:30:27.276Z,60.58
2023-04-15T07:32:55.299Z,60.56
2023-04-15T07:35:23.589Z,60.92
2023-04-15T07:37:52.260Z,60.72
2023-04-15T07:40:20.226Z,60.25
2023-04-15T07:42:49.511Z,60.35
2023-04-15T07:45:17.770Z,60.54
2023-04-15T07:47:46.140Z,60.58
2023-04-15T07:50:14.573Z,60.66
2023-04-15T07:52:42.975Z,60.83
2023-04-15T07:55:11.085Z,60.88
2023-04-15T07:57:39.024Z,60.85
2023-04-15T08:00:08.204Z,60.98
2023-04-15T08:02:43.524Z,60.11
2023-04-15T08:05:11.758Z,60.12
2023-04-15T08:07:40.048Z,59.11
2023-04-15T08:10:08.760Z,58.32
2023-04-15T08:12:37.262Z,60.47
2023-04-15T08:15:06.753Z,61.06
2023-04-15T08:17:34.990Z,64.67
2023-04-15T08:20:06.049Z,66.80
2023-04-15T08:22:34.532Z,63.96
2023-04-15T08:25:03.584Z,61.70
2023-04-15T08:27:31.811Z,61.48
2023-04-15T08:30:02.136Z,60.52
2023-04-15T08:32:31.569Z,60.31
2023-04-15T08:34:59.542Z,59.43
2023-04-15T08:37:27.512Z,58.69
2023-04-15T08:39:59.074Z,60.03
2023-04-15T08:42:37.544Z,60.90
2023-04-15T08:45:06.482Z,61.20
2023-04-15T08:47:34.561Z,63.78
2023-04-15T08:50:04.436Z,63.51
2023-04-15T08:52:32.503Z,61.95
2023-04-15T08:55:00.490Z,60.76
2023-04-15T08:57:28.805Z,58.85
2023-04-15T08:59:57.406Z,57.40
2023-04-15T09:02:28.722Z,60.25
2023-04-15T09:04:57.812Z,62.27
2023-04-15T09:07:26.122Z,62.60
2023-04-15T09:09:54.282Z,58.15
2023-04-15T09:12:22.310Z,56.66
2023-04-15T09:14:50.301Z,58.25
2023-04-15T09:17:20.666Z,60.67
2023-04-15T09:19:48.899Z,61.09
2023-04-15T09:22:52.733Z,59.49
2023-04-15T09:25:24.396Z,56.71
2023-04-15T09:27:57.942Z,58.80
2023-04-15T09:30:26.594Z,60.80
2023-04-15T09:32:57.236Z,61.05
2023-04-15T09:35:26.323Z,63.13
2023-04-15T09:38:03.038Z,62.63
2023-04-15T09:40:35.036Z,61.19
2023-04-15T09:43:07.347Z,58.03
2023-04-15T09:45:36.449Z,55.79
2023-04-15T09:48:21.776Z,58.34
2023-04-15T09:50:50.065Z,58.14
2023-04-15T09:53:20.727Z,59.82
2023-04-15T09:55:55.595Z,59.78
2023-04-15T09:58:25.056Z,61.99
2023-04-15T10:00:54.404Z,63.59
2023-04-15T10:03:31.805Z,62.49
2023-04-15T10:06:01.045Z,58.61
2023-04-15T10:08:33.812Z,56.58
2023-04-15T10:11:05.355Z,58.48
2023-04-15T10:13:35.328Z,58.53
2023-04-15T10:16:15.981Z,60.63
2023-04-15T10:18:45.534Z,62.80
2023-04-15T10:21:16.612Z,60.99
2023-04-15T10:23:47.833Z,57.80
2023-04-15T10:26:17.299Z,55.47
2023-04-15T10:28:47.256Z,56.28
2023-04-15T10:31:15.482Z,57.65
2023-04-15T10:33:46.422Z,55.95
2023-04-15T10:36:18.964Z,57.51
2023-04-15T10:38:47.300Z,55.09
2023-04-15T10:41:22.061Z,54.87
2023-04-15T10:44:03.775Z,55.85
2023-04-15T10:46:38.189Z,56.98
2023-04-15T10:49:14.969Z,55.91
2023-04-15T10:51:47.195Z,57.92
2023-04-15T10:54:32.442Z,58.13
2023-04-15T10:57:01.519Z,56.74
2023-04-15T10:59:30.547Z,56.40
2023-04-15T11:02:03.537Z,56.78
2023-04-15T11:04:59.130Z,56.74
2023-04-15T11:07:49.000Z,57.02
2023-04-15T11:10:25.935Z,57.51
2023-04-15T11:12:57.690Z,56.14
2023-04-15T11:15:30.677Z,56.97
2023-04-15T11:18:20.972Z,57.09
2023-04-15T11:20:57.619Z,56.93
2023-04-15T11:23:44.172Z,54.56
2023-04-15T11:26:12.558Z,55.93
2023-04-15T11:28:43.345Z,55.53
2023-04-15T11:31:13.037Z,54.89
2023-04-15T11:33:54.637Z,54.75
2023-04-15T11:36:30.186Z,55.30
2023-04-15T11:38:59.586Z,56.62
2023-04-15T11:41:27.582Z,55.99
2023-04-15T11:43:55.853Z,55.44
2023-04-15T11:46:30.925Z,54.73
2023-04-15T11:49:00.160Z,56.25
2023-04-15T11:51:32.011Z,57.19
2023-04-15T11:54:00.072Z,57.60
2023-04-15T11:56:27.973Z,57.80
2023-04-15T11:58:58.819Z,58.96
2023-04-15T12:01:36.466Z,58.86
2023-04-15T12:04:15.303Z,58.28
2023-04-15T12:06:43.387Z,58.75
2023-04-15T12:09:17.882Z,58.00
2023-04-15T12:11:53.889Z,54.93
2023-04-15T12:14:24.220Z,55.15
2023-04-15T12:17:03.103Z,55.87
2023-04-15T12:19:38.246Z,54.74
2023-04-15T12:22:09.571Z,53.60
2023-04-15T12:24:38.090Z,54.39
2023-04-15T12:27:11.309Z,54.97
2023-04-15T12:29:40.841Z,54.06
2023-04-15T12:32:12.645Z,54.11
2023-04-15T12:34:50.976Z,53.08
2023-04-15T12:37:19.853Z,53.83
2023-04-15T12:39:49.360Z,53.62
2023-04-15T12:42:18.134Z,54.74
2023-04-15T12:44:46.319Z,54.39
2023-04-15T12:47:17.205Z,55.05
2023-04-15T12:49:45.880Z,56.99
2023-04-15T12:52:13.945Z,57.09
2023-04-15T12:54:41.914Z,56.21
2023-04-15T12:57:09.787Z,55.62
2023-04-15T12:59:37.812Z,54.56
2023-04-15T13:02:05.849Z,53.37
2023-04-15T13:04:34.116Z,54.09
2023-04-15T13:07:02.415Z,53.48
2023-04-15T13:09:31.119Z,52.70
2023-04-15T13:11:59.350Z,53.99
2023-04-15T13:14:27.301Z,53.09
2023-04-15T13:16:57.142Z,53.34
2023-04-15T13:19:25.262Z,53.15
2023-04-15T13:21:53.412Z,54.07
2023-04-15T13:24:21.463Z,54.33
2023-04-15T13:26:50.482Z,54.57
2023-04-15T13:29:18.894Z,55.71
2023-04-15T13:31:47.031Z,56.64
2023-04-15T13:34:14.976Z,56.74
2023-04-15T13:36:42.974Z,57.34
2023-04-15T13:39:11.140Z,57.14
2023-04-15T13:41:40.526Z,57.24
2023-04-15T13:44:08.731Z,57.15
2023-04-15T13:46:37.905Z,57.87
2023-04-15T13:49:06.208Z,57.89
2023-04-15T13:51:36.408Z,58.48
2023-04-15T13:54:07.279Z,59.22
2023-04-15T13:56:35.552Z,59.25
2023-04-15T13:59:03.738Z,59.25
2023-04-15T14:01:31.749Z,59.60
2023-04-15T14:03:59.807Z,59.41
2023-04-15T14:06:28.722Z,59.23
2023-04-15T14:08:56.717Z,58.77
2023-04-15T14:11:24.837Z,58.52
2023-04-15T14:13:52.881Z,58.58
2023-04-15T14:16:20.960Z,58.01
2023-04-15T14:18:49.173Z,57.72
2023-04-15T14:21:17.244Z,57.46
2023-04-15T14:23:45.515Z,58.12
2023-04-15T14:26:16.485Z,58.16
2023-04-15T14:28:48.568Z,57.96
2023-04-15T14:31:16.788Z,58.12
2023-04-15T14:33:44.734Z,58.59
2023-04-15T14:36:12.770Z,58.90
2023-04-15T14:38:41.208Z,59.60
2023-04-15T14:41:09.974Z,60.33
2023-04-15T14:43:39.513Z,61.07
2023-04-15T14:46:08.798Z,61.81
2023-04-15T14:48:37.034Z,63.17
2023-04-15T14:51:05.366Z,65.81
2023-04-15T14:53:33.572Z,64.28
2023-04-15T14:56:01.720Z,64.93
2023-04-15T14:58:29.864Z,65.02
2023-04-15T15:00:58.051Z,63.74
2023-04-15T15:03:26.312Z,59.46
2023-04-15T15:05:54.701Z,59.75
2023-04-15T15:08:25.041Z,59.87
2023-04-15T15:10:53.009Z,60.27
2023-04-15T15:13:21.090Z,60.49
2023-04-15T15:15:51.592Z,61.24
2023-04-15T15:18:19.835Z,62.39
2023-04-15T15:20:48.010Z,64.78
2023-04-15T15:23:16.265Z,65.13
2023-04-15T15:25:44.647Z,63.58
2023-04-15T15:28:12.647Z,62.16
2023-04-15T15:30:40.891Z,60.32
2023-04-15T15:33:08.976Z,57.43
2023-04-15T15:35:37.080Z,56.74
2023-04-15T15:38:05.562Z,57.49
2023-04-15T15:40:33.651Z,58.12
2023-04-15T15:43:01.671Z,59.40
2023-04-15T15:45:30.402Z,59.80
2023-04-15T15:47:59.395Z,60.76
2023-04-15T15:50:27.438Z,60.67
2023-04-15T15:52:55.768Z,61.67
2023-04-15T15:55:25.337Z,63.08
2023-04-15T15:57:54.527Z,67.12
2023-04-15T16:00:23.243Z,66.84
2023-04-15T16:03:05.278Z,64.71
2023-04-15T16:05:36.147Z,63.93
2023-04-15T16:08:04.508Z,62.99
2023-04-15T16:10:32.490Z,61.79
2023-04-15T16:13:00.500Z,61.81
2023-04-15T16:15:28.585Z,60.66
2023-04-15T16:17:56.677Z,58.85
2023-04-15T16:20:24.910Z,57.02
2023-04-15T16:22:52.857Z,58.10
2023-04-15T16:25:20.942Z,58.36
2023-04-15T16:28:00.836Z,59.50
2023-04-15T16:30:31.487Z,62.69
2023-04-15T16:32:59.525Z,65.19
2023-04-15T16:35:27.568Z,62.99
2023-04-15T16:37:55.790Z,59.53
2023-04-15T16:40:24.124Z,58.73
2023-04-15T16:42:52.299Z,60.19
2023-04-15T16:45:20.365Z,61.02
2023-04-15T16:47:48.408Z,63.23
2023-04-15T16:50:16.919Z,65.87
2023-04-15T16:52:44.949Z,66.77
2023-04-15T16:55:13.026Z,66.36
2023-04-15T16:58:01.077Z,65.51
2023-04-15T17:00:29.106Z,64.82
2023-04-15T17:02:57.397Z,64.33
2023-04-15T17:05:27.733Z,63.54
2023-04-15T17:07:55.929Z,62.48
2023-04-15T17:10:24.069Z,62.12
2023-04-15T17:12:52.892Z,62.28
2023-04-15T17:15:21.140Z,60.12
2023-04-15T17:17:49.195Z,58.16
2023-04-15T17:20:20.018Z,58.06
2023-04-15T17:22:51.089Z,60.00
2023-04-15T17:25:21.373Z,59.81
2023-04-15T17:27:49.456Z,60.32
2023-04-15T17:30:19.573Z,60.75
2023-04-15T17:32:47.638Z,65.10
2023-04-15T17:35:16.343Z,68.90
2023-04-15T17:37:46.447Z,69.24
2023-04-15T17:40:14.926Z,67.80
2023-04-15T17:42:43.022Z,66.14
2023-04-15T17:45:14.305Z,64.61
2023-04-15T17:47:43.058Z,63.61
2023-04-15T17:50:11.127Z,63.24
2023-04-15T17:52:39.104Z,63.09
2023-04-15T17:55:08.070Z,62.20
2023-04-15T17:57:36.402Z,61.27
2023-04-15T18:00:06.916Z,60.90
2023-04-15T18:02:41.222Z,60.01
2023-04-15T18:05:10.518Z,57.54
2023-04-15T18:07:38.665Z,57.43
2023-04-15T18:10:11.149Z,59.00
2023-04-15T18:12:39.319Z,59.61
2023-04-15T18:15:09.531Z,60.63
2023-04-15T18:17:39.265Z,60.76
2023-04-15T18:20:08.652Z,61.07
2023-04-15T18:22:41.777Z,65.22
2023-04-15T18:25:14.206Z,68.13
2023-04-15T18:27:42.313Z,66.36
2023-04-15T18:30:11.525Z,64.58
2023-04-15T18:32:39.636Z,63.22
2023-04-15T18:35:08.366Z,65.04
2023-04-15T18:37:36.414Z,65.44
2023-04-15T18:40:17.709Z,64.24
2023-04-15T18:43:05.990Z,63.13
2023-04-15T18:45:35.152Z,62.78
2023-04-15T18:48:03.312Z,60.83
2023-04-15T18:50:31.272Z,60.45
2023-04-15T18:52:59.344Z,60.48
2023-04-15T18:55:27.489Z,59.79
2023-04-15T18:57:56.666Z,58.45
2023-04-15T19:00:25.035Z,57.23
2023-04-15T19:02:55.971Z,58.52
2023-04-15T19:05:31.458Z,59.17
2023-04-15T19:07:59.838Z,59.63
2023-04-15T19:10:28.337Z,59.60
2023-04-15T19:12:56.396Z,59.96
2023-04-15T19:15:24.402Z,61.49
2023-04-15T19:17:52.393Z,61.61
2023-04-15T19:20:20.523Z,68.34
2023-04-15T19:22:48.636Z,70.23
2023-04-15T19:25:16.751Z,70.44
2023-04-15T19:27:45.004Z,69.04
2023-04-15T19:30:13.187Z,68.05
2023-04-15T19:32:41.622Z,65.96
2023-04-15T19:35:11.547Z,63.05
2023-04-15T19:37:39.859Z,63.33
2023-04-15T19:40:09.626Z,63.15
2023-04-15T19:42:37.620Z,63.02
2023-04-15T19:45:06.377Z,62.34
2023-04-15T19:47:34.873Z,61.69
2023-04-15T19:50:02.957Z,61.18
2023-04-15T19:52:31.428Z,61.52
2023-04-15T19:54:59.373Z,61.88
2023-04-15T19:57:27.407Z,61.07
2023-04-15T19:59:56.067Z,61.17
2023-04-15T20:02:24.262Z,60.82
2023-04-15T20:04:52.380Z,61.37
2023-04-15T20:07:20.426Z,62.29
2023-04-15T20:09:48.343Z,62.95
2023-04-15T20:12:51.185Z,63.85
2023-04-15T20:15:09.300Z,64.38
2023-04-15T20:17:37.440Z,64.48
2023-04-15T20:20:06.352Z,64.05
2023-04-15T20:22:34.660Z,63.27
2023-04-15T20:25:02.872Z,62.98
2023-04-15T20:27:30.793Z,63.21
2023-04-15T20:29:58.844Z,63.22
2023-04-15T20:32:28.300Z,63.07
2023-04-15T20:34:56.649Z,63.11
2023-04-15T20:37:24.651Z,62.87
2023-04-15T20:39:52.980Z,62.69
2023-04-15T20:42:20.978Z,62.12
2023-04-15T20:44:48.922Z,62.14
2023-04-15T20:47:17.121Z,62.23
2023-04-15T20:49:47.533Z,62.21
2023-04-15T20:52:15.427Z,62.01
2023-04-15T20:54:44.077Z,62.60
2023-04-15T20:57:12.211Z,62.88
2023-04-15T20:59:40.364Z,63.00
2023-04-15T21:02:08.488Z,63.15
2023-04-15T21:04:38.389Z,63.08
2023-04-15T21:07:06.341Z,63.01
2023-04-15T21:09:34.372Z,63.10
2023-04-15T21:12:02.624Z,63.07
2023-04-15T21:14:30.668Z,61.73
2023-04-15T21:16:58.854Z,61.07
2023-04-15T21:19:26.861Z,61.70
2023-04-15T21:21:54.924Z,62.16
2023-04-15T21:24:22.985Z,62.42
2023-04-15T21:26:51.205Z,62.90
2023-04-15T21:29:19.241Z,62.63
2023-04-15T21:31:47.255Z,63.05
2023-04-15T21:34:15.200Z,63.50
2023-04-15T21:36:43.171Z,62.76
2023-04-15T21:39:11.215Z,62.60
2023-04-15T21:41:39.237Z,63.00
2023-04-15T21:44:07.268Z,63.00
2023-04-15T21:46:36.124Z,62.76
2023-04-15T21:49:04.865Z,62.56
2023-04-15T21:51:33.205Z,62.29
2023-04-15T21:54:01.247Z,62.59
2023-04-15T21:56:29.306Z,62.45
2023-04-15T21:58:57.633Z,62.13
2023-04-15T22:01:26.464Z,62.12
2023-04-15T22:03:54.741Z,62.48
2023-04-15T22:06:23.118Z,62.59
2023-04-15T22:08:56.952Z,62.51
2023-04-15T22:11:30.497Z,62.67
2023-04-15T22:13:58.789Z,62.08
2023-04-15T22:16:27.089Z,61.84
2023-04-15T22:18:55.773Z,61.04
2023-04-15T22:21:59.462Z,60.81
2023-04-15T22:24:33.039Z,60.54
2023-04-15T22:27:08.492Z,60.27
2023-04-15T22:29:36.534Z,59.90
2023-04-15T22:32:04.605Z,58.83
2023-04-15T22:34:32.723Z,59.52
2023-04-15T22:37:02.861Z,59.97
2023-04-15T22:39:33.196Z,59.12
2023-04-15T22:42:03.255Z,62.19
2023-04-15T22:44:31.257Z,68.43
2023-04-15T22:46:59.260Z,68.59
2023-04-15T22:49:27.459Z,67.42
2023-04-15T22:51:55.508Z,65.93
2023-04-15T22:54:24.630Z,64.65
2023-04-15T22:56:52.537Z,63.94
2023-04-15T22:59:20.571Z,64.04
2023-04-15T23:01:48.874Z,64.02
2023-04-15T23:04:23.190Z,64.22
2023-04-15T23:06:54.240Z,63.69
2023-04-15T23:09:22.690Z,63.64
2023-04-15T23:11:50.724Z,63.29
2023-04-15T23:14:18.803Z,63.35
2023-04-15T23:16:46.800Z,63.46
2023-04-15T23:19:14.767Z,63.80
2023-04-15T23:21:42.833Z,63.56
2023-04-15T23:24:11.666Z,63.01
2023-04-15T23:26:39.676Z,62.62
2023-04-15T23:29:09.069Z,62.38
2023-04-15T23:31:37.321Z,62.40
2023-04-15T23:34:06.550Z,62.19
2023-04-15T23:36:35.254Z,62.18
2023-04-15T23:39:03.439Z,62.34
2023-04-15T23:41:31.561Z,62.23
2023-04-15T23:43:59.543Z,62.31
2023-04-15T23:46:27.560Z,62.20
2023-04-15T23:48:55.909Z,62.11
2023-04-15T23:51:23.855Z,61.93
2023-04-15T23:53:52.487Z,61.92
2023-04-15T23:56:20.955Z,61.75
2023-04-15T23:58:49.011Z,61.63
